createdAt,value
2018-09-05T00:00:48.323Z,99.99
2018-09-05T00:01:48.751Z,99.99
2018-09-05T00:02:48.455Z,99.99
2018-09-05T00:03:48.518Z,99.99
2018-09-05T00:04:48.586Z,99.99
2018-09-05T00:05:48.650Z,99.99
2018-09-05T00:06:48.715Z,99.99
2018-09-05T00:07:49.139Z,99.99
2018-09-05T00:08:48.848Z,99.99
2018-09-05T00:09:48.913Z,99.99
2018-09-05T00:10:48.974Z,99.99
2018-09-05T00:11:49.043Z,99.99
2018-09-05T00:12:49.108Z,99.99
2018-09-05T00:13:49.197Z,99.99
2018-09-05T00:14:49.239Z,99.99
2018-09-05T00:15:49.303Z,99.99
2018-09-05T00:16:49.368Z,99.99
2018-09-05T00:17:49.435Z,99.99
2018-09-05T00:18:49.507Z,99.99
2018-09-05T00:19:49.571Z,99.99
2018-09-05T00:20:49.632Z,99.99
2018-09-05T00:21:49.696Z,99.99
2018-09-05T00:22:49.763Z,99.99
2018-09-05T00:23:49.831Z,99.99
2018-09-05T00:24:49.899Z,99.99
2018-09-05T00:25:49.955Z,99.99
2018-09-05T00:26:50.020Z,99.99
2018-09-05T00:27:50.092Z,99.99
2018-09-05T00:28:50.266Z,99.99
2018-09-05T00:29:50.216Z,99.99
2018-09-05T00:30:50.286Z,99.99
2018-09-05T00:31:50.348Z,99.99
2018-09-05T00:32:50.415Z,99.99
2018-09-05T00:33:50.484Z,99.99
2018-09-05T00:34:50.552Z,99.99
2018-09-05T00:35:50.608Z,99.99
2018-09-05T00:36:51.536Z,99.99
2018-09-05T00:37:50.740Z,99.99
2018-09-05T00:38:50.812Z,99.99
2018-09-05T00:39:50.876Z,99.99
2018-09-05T00:40:50.936Z,99.99
2018-09-05T00:41:51.002Z,99.99
2018-09-05T00:42:51.068Z,99.99
2018-09-05T00:43:51.396Z,99.99
2018-09-05T00:44:51.199Z,99.99
2018-09-05T00:45:51.260Z,99.99
2018-09-05T00:46:51.328Z,99.99
2018-09-05T00:47:51.392Z,99.99
2018-09-05T00:48:51.464Z,99.99
2018-09-05T00:49:51.528Z,99.99
2018-09-05T00:50:51.591Z,99.99
2018-09-05T00:51:52.544Z,99.99
2018-09-05T00:52:51.720Z,99.99
2018-09-05T00:53:51.793Z,99.99
2018-09-05T00:54:51.860Z,99.99
2018-09-05T00:55:51.912Z,99.99
2018-09-05T00:56:51.980Z,99.99
2018-09-05T00:57:52.045Z,99.99
2018-09-05T00:58:52.205Z,99.99
2018-09-05T00:59:52.183Z,99.99
2018-09-05T01:00:52.241Z,99.99
2018-09-05T01:01:52.312Z,99.99
2018-09-05T01:06:23.187Z,99.99
2018-09-05T01:07:01.637Z,99.99
2018-09-05T01:08:01.705Z,99.99
2018-09-05T01:09:01.770Z,99.99
2018-09-05T01:10:01.871Z,99.99
2018-09-05T01:11:01.901Z,99.99
2018-09-05T01:12:01.969Z,99.99
2018-09-05T01:13:02.030Z,99.99
2018-09-05T01:14:02.098Z,99.99
2018-09-05T01:15:02.213Z,99.99
2018-09-05T01:16:02.225Z,99.99
2018-09-05T01:17:02.290Z,99.99
2018-09-05T01:18:02.358Z,99.99
2018-09-05T01:19:02.425Z,99.99
2018-09-05T01:20:02.496Z,99.99
2018-09-05T01:21:02.562Z,99.99
2018-09-05T01:22:02.617Z,99.99
2018-09-05T01:23:02.686Z,99.99
2018-09-05T01:24:02.749Z,99.99
2018-09-05T01:25:02.822Z,99.99
2018-09-05T01:26:02.886Z,99.99
2018-09-05T01:27:02.946Z,99.99
2018-09-05T01:28:03.010Z,99.99
2018-09-05T01:29:03.074Z,99.99
2018-09-05T01:30:03.237Z,99.99
2018-09-05T01:31:03.206Z,99.99
2018-09-05T01:32:03.273Z,99.99
2018-09-05T01:33:03.335Z,99.99
2018-09-05T01:34:03.403Z,99.99
2018-09-05T01:35:03.475Z,99.99
2018-09-05T01:36:03.538Z,99.99
2018-09-05T01:37:03.599Z,99.99
2018-09-05T01:38:03.662Z,99.99
2018-09-05T01:39:03.727Z,99.99
2018-09-05T01:40:03.798Z,99.99
2018-09-05T01:41:03.867Z,99.99
2018-09-05T01:42:03.923Z,99.99
2018-09-05T01:43:03.990Z,99.99
2018-09-05T01:44:04.055Z,99.99
2018-09-05T01:45:04.147Z,99.99
2018-09-05T01:46:04.182Z,99.99
2018-09-05T01:47:04.251Z,99.99
2018-09-05T01:48:04.315Z,99.99
2018-09-05T01:49:04.379Z,99.99
2018-09-05T01:50:04.451Z,99.99
2018-09-05T01:51:04.519Z,99.99
2018-09-05T01:52:04.576Z,99.99
2018-09-05T01:53:04.643Z,99.99
2018-09-05T01:54:04.707Z,99.99
2018-09-05T01:55:04.811Z,99.99
2018-09-05T01:56:04.851Z,99.99
2018-09-05T01:57:04.903Z,99.99
2018-09-05T01:58:04.967Z,99.99
2018-09-05T01:59:05.028Z,99.99
2018-09-05T02:00:05.128Z,99.99
2018-09-05T02:01:05.164Z,99.99
2018-09-05T02:02:05.228Z,99.99
2018-09-05T02:03:05.294Z,99.99
2018-09-05T02:04:05.359Z,99.99
2018-09-05T02:05:05.435Z,99.99
2018-09-05T02:06:05.497Z,99.99
2018-09-05T02:07:05.556Z,99.99
2018-09-05T02:08:05.620Z,99.99
2018-09-05T02:09:05.683Z,99.99
2018-09-05T02:10:05.756Z,99.99
2018-09-05T02:11:05.819Z,99.99
2018-09-05T02:12:05.880Z,99.99
2018-09-05T02:13:05.944Z,99.99
2018-09-05T02:14:06.013Z,99.99
2018-09-05T02:15:06.100Z,99.99
2018-09-05T02:16:06.140Z,99.99
2018-09-05T02:17:06.208Z,99.99
2018-09-05T02:18:06.275Z,99.99
2018-09-05T02:19:06.337Z,99.99
2018-09-05T02:20:06.408Z,99.99
2018-09-05T02:21:06.472Z,99.99
2018-09-05T02:22:06.532Z,99.99
2018-09-05T02:23:06.597Z,99.99
2018-09-05T02:24:06.664Z,99.99
2018-09-05T02:25:06.732Z,99.99
2018-09-05T02:26:06.804Z,99.99
2018-09-05T02:27:06.856Z,99.99
2018-09-05T02:28:06.924Z,99.99
2018-09-05T02:29:06.989Z,99.99
2018-09-05T02:30:07.064Z,99.99
2018-09-05T02:31:07.124Z,99.99
2018-09-05T02:32:07.184Z,99.99
2018-09-05T02:33:07.252Z,99.99
2018-09-05T02:34:07.312Z,99.99
2018-09-05T02:35:07.384Z,99.99
2018-09-05T02:36:07.452Z,99.99
2018-09-05T02:37:07.508Z,99.99
2018-09-05T02:38:07.572Z,99.99
2018-09-05T02:39:07.641Z,99.99
2018-09-05T02:40:07.715Z,99.99
2018-09-05T02:41:07.776Z,99.99
2018-09-05T02:42:07.833Z,99.99
2018-09-05T02:43:07.900Z,99.99
2018-09-05T02:44:07.965Z,99.99
2018-09-05T02:45:08.041Z,99.99
2018-09-05T02:46:08.101Z,99.99
2018-09-05T02:47:08.160Z,99.99
2018-09-05T02:48:08.225Z,99.99
2018-09-05T02:49:08.289Z,99.99
2018-09-05T02:50:08.362Z,99.99
2018-09-05T02:51:08.428Z,99.99
2018-09-05T02:52:08.485Z,99.99
2018-09-05T02:53:08.549Z,99.99
2018-09-05T02:54:08.617Z,99.99
2018-09-05T02:55:08.690Z,99.99
2018-09-05T02:56:08.752Z,99.99
2018-09-05T02:57:08.808Z,99.99
2018-09-05T02:58:08.877Z,99.99
2018-09-05T02:59:08.941Z,99.99
2018-09-05T03:00:09.017Z,99.99
2018-09-05T03:01:09.077Z,99.99
2018-09-05T03:02:09.137Z,99.99
2018-09-05T03:03:09.201Z,99.99
2018-09-05T03:04:09.265Z,99.99
2018-09-05T03:05:09.337Z,99.99
2018-09-05T03:06:09.405Z,99.99
2018-09-05T03:07:09.463Z,99.99
2018-09-05T03:08:09.525Z,99.99
2018-09-05T03:09:09.599Z,99.99
2018-09-05T03:13:14.005Z,99.99
2018-09-05T03:14:14.069Z,99.99
2018-09-05T03:15:14.394Z,99.99
2018-09-05T03:16:14.198Z,99.99
2018-09-05T03:17:14.258Z,99.99
2018-09-05T03:18:14.325Z,99.99
2018-09-05T03:19:14.393Z,99.99
2018-09-05T03:20:14.466Z,99.99
2018-09-05T03:21:14.534Z,99.99
2018-09-05T03:22:14.590Z,99.99
2018-09-05T03:23:14.655Z,99.99
2018-09-05T03:24:14.722Z,99.99
2018-09-05T03:25:14.791Z,99.99
2018-09-05T03:26:14.858Z,99.99
2018-09-05T03:27:14.914Z,99.99
2018-09-05T03:28:14.982Z,99.99
2018-09-05T03:29:15.046Z,99.99
2018-09-05T03:30:15.147Z,99.99
2018-09-05T03:31:15.175Z,99.99
2018-09-05T03:32:15.267Z,99.99
2018-09-05T03:33:15.307Z,99.99
2018-09-05T03:34:15.370Z,99.99
2018-09-05T03:35:15.443Z,99.99
2018-09-05T03:36:15.510Z,99.99
2018-09-05T03:37:15.567Z,99.99
2018-09-05T03:38:15.631Z,99.99
2018-09-05T03:39:15.701Z,99.99
2018-09-05T03:40:15.767Z,99.99
2018-09-05T03:41:15.834Z,99.99
2018-09-05T03:42:15.890Z,99.99
2018-09-05T03:43:15.955Z,99.99
2018-09-05T03:44:16.023Z,99.99
2018-09-05T03:46:49.711Z,99.99
2018-09-05T03:47:49.771Z,99.99
2018-09-05T03:48:49.839Z,99.99
2018-09-05T03:49:49.996Z,99.99
2018-09-05T03:50:50.076Z,99.99
2018-09-05T03:51:50.035Z,99.99
2018-09-05T03:52:50.099Z,99.99
2018-09-05T03:53:50.160Z,99.99
2018-09-05T03:54:50.224Z,99.99
2018-09-05T03:55:50.300Z,99.99
2018-09-05T03:56:50.367Z,99.99
2018-09-05T03:57:50.423Z,99.99
2018-09-05T03:58:50.488Z,99.99
2018-09-05T03:59:50.555Z,99.99
2018-09-05T04:00:50.632Z,99.99
2018-09-05T04:01:50.695Z,99.99
2018-09-05T04:02:50.751Z,99.99
2018-09-05T04:03:50.821Z,99.99
2018-09-05T04:04:50.880Z,99.99
2018-09-05T04:05:50.952Z,99.99
2018-09-05T04:06:51.016Z,99.99
2018-09-05T04:07:51.080Z,99.99
2018-09-05T04:08:51.140Z,99.99
2018-09-05T04:09:51.208Z,99.99
2018-09-05T04:10:51.360Z,99.99
2018-09-05T04:11:51.340Z,99.99
2018-09-05T04:12:51.401Z,99.99
2018-09-05T04:13:51.468Z,99.99
2018-09-05T04:14:51.532Z,99.99
2018-09-05T04:15:51.607Z,99.99
2018-09-05T04:16:51.668Z,99.99
2018-09-05T04:17:51.732Z,99.99
2018-09-05T04:18:51.792Z,99.99
2018-09-05T04:19:51.856Z,99.99
2018-09-05T04:20:51.929Z,99.99
2018-09-05T04:21:52.037Z,99.99
2018-09-05T04:22:52.053Z,99.99
2018-09-05T04:23:52.116Z,99.99
2018-09-05T04:24:52.185Z,99.99
2018-09-05T04:25:52.274Z,99.99
2018-09-05T04:26:52.312Z,99.99
2018-09-05T04:27:52.381Z,99.99
2018-09-05T04:28:52.444Z,99.99
2018-09-05T04:29:52.522Z,99.99
2018-09-05T04:30:52.581Z,99.99
2018-09-05T04:31:52.645Z,99.99
2018-09-05T04:32:52.700Z,99.99
2018-09-05T04:33:52.769Z,99.99
2018-09-05T04:34:52.833Z,99.99
2018-09-05T04:35:52.905Z,99.99
2018-09-05T04:36:52.969Z,99.99
2018-09-05T04:37:53.029Z,99.99
2018-09-05T04:38:53.093Z,99.99
2018-09-05T04:39:53.157Z,99.99
2018-09-05T04:40:53.253Z,99.99
2018-09-05T04:41:53.289Z,99.99
2018-09-05T04:42:53.353Z,99.99
2018-09-05T04:43:53.417Z,99.99
2018-09-05T04:44:53.485Z,99.99
2018-09-05T04:45:53.557Z,99.99
2018-09-05T04:46:53.621Z,99.99
2018-09-05T04:47:53.677Z,99.99
2018-09-05T04:48:53.745Z,99.99
2018-09-05T04:49:53.810Z,99.99
2018-09-05T04:50:53.881Z,99.99
2018-09-05T04:51:53.950Z,99.99
2018-09-05T04:52:54.005Z,99.99
2018-09-05T04:53:54.069Z,99.99
2018-09-05T04:54:54.133Z,99.99
2018-09-05T04:55:54.470Z,99.99
2018-09-05T04:56:54.270Z,99.99
2018-09-05T04:57:54.330Z,99.99
2018-09-05T04:58:54.394Z,99.99
2018-09-05T04:59:54.458Z,99.99
2018-09-05T05:00:54.530Z,99.99
2018-09-05T05:01:54.600Z,99.99
2018-09-05T05:02:54.654Z,99.99
2018-09-05T05:03:54.737Z,99.99
2018-09-05T05:04:54.786Z,99.99
2018-09-05T05:05:54.922Z,99.99
2018-09-05T05:06:54.922Z,99.99
2018-09-05T05:07:54.981Z,99.99
2018-09-05T05:08:55.042Z,99.99
2018-09-05T05:09:55.112Z,99.99
2018-09-05T05:10:55.270Z,99.99
2018-09-05T05:11:55.243Z,99.99
2018-09-05T05:12:55.302Z,99.99
2018-09-05T05:13:55.385Z,99.99
2018-09-05T05:14:55.434Z,99.99
2018-09-05T05:15:55.508Z,99.99
2018-09-05T05:16:55.571Z,99.99
2018-09-05T05:17:55.632Z,99.99
2018-09-05T05:18:55.699Z,99.99
2018-09-05T05:19:55.759Z,99.99
2018-09-05T05:20:55.831Z,99.99
2018-09-05T05:21:55.895Z,99.99
2018-09-05T05:22:55.955Z,99.99
2018-09-05T05:23:56.024Z,99.99
2018-09-05T05:24:56.083Z,99.99
2018-09-05T05:25:56.155Z,99.99
2018-09-05T05:26:56.239Z,99.99
2018-09-05T05:27:56.285Z,99.99
2018-09-05T05:28:56.382Z,99.99
2018-09-05T05:29:56.411Z,99.99
2018-09-05T05:30:56.476Z,99.99
2018-09-05T05:31:56.547Z,99.99
2018-09-05T05:32:56.674Z,99.99
2018-09-05T05:33:56.672Z,99.99
2018-09-05T05:34:56.736Z,99.99
2018-09-05T05:35:56.799Z,99.99
2018-09-05T05:36:56.874Z,99.99
2018-09-05T05:37:56.940Z,99.99
2018-09-05T05:38:56.996Z,99.99
2018-09-05T05:39:57.060Z,99.99
2018-09-05T05:40:57.132Z,99.99
2018-09-05T05:41:57.292Z,99.99
2018-09-05T05:42:57.256Z,99.99
2018-09-05T05:43:57.320Z,99.99
2018-09-05T05:44:57.393Z,99.99
2018-09-05T05:45:57.458Z,99.99
2018-09-05T05:46:57.526Z,99.99
2018-09-05T05:47:57.589Z,99.99
2018-09-05T05:48:57.649Z,99.99
2018-09-05T05:49:57.712Z,99.99
2018-09-05T05:50:57.780Z,99.99
2018-09-05T05:51:57.854Z,99.99
2018-09-05T05:52:57.918Z,99.99
2018-09-05T05:53:57.976Z,99.99
2018-09-05T05:54:58.075Z,99.99
2018-09-05T05:55:58.105Z,99.99
2018-09-05T05:56:58.173Z,99.99
2018-09-05T05:57:58.426Z,99.99
2018-09-05T05:58:58.301Z,99.99
2018-09-05T05:59:58.368Z,99.99
2018-09-05T06:00:58.475Z,99.99
2018-09-05T06:01:58.497Z,99.99
2018-09-05T06:02:58.568Z,99.99
2018-09-05T06:03:58.636Z,99.99
2018-09-05T06:04:58.696Z,99.99
2018-09-05T06:05:58.784Z,99.99
2018-09-05T06:06:58.825Z,99.99
2018-09-05T06:07:58.897Z,99.99
2018-09-05T06:08:58.965Z,99.99
2018-09-05T06:09:59.021Z,99.99
2018-09-05T06:10:59.089Z,99.99
2018-09-05T06:11:59.208Z,99.99
2018-09-05T06:12:59.397Z,99.99
2018-09-05T06:13:59.287Z,99.99
2018-09-05T06:14:59.349Z,99.99
2018-09-05T06:15:59.417Z,99.99
2018-09-05T06:16:59.481Z,99.99
2018-09-05T06:17:59.586Z,99.99
2018-09-05T06:18:59.621Z,99.99
2018-09-05T06:19:59.682Z,99.99
2018-09-05T06:20:59.803Z,99.99
2018-09-05T06:21:59.850Z,99.99
2018-09-05T06:22:59.885Z,99.99
2018-09-05T06:23:59.990Z,99.99
2018-09-05T06:25:00.010Z,99.99
2018-09-05T06:26:00.074Z,99.99
2018-09-05T06:27:00.142Z,99.99
2018-09-05T06:28:00.483Z,99.99
2018-09-05T06:29:00.273Z,99.99
2018-09-05T06:30:00.338Z,99.99
2018-09-05T06:31:00.425Z,99.99
2018-09-05T06:32:00.470Z,99.99
2018-09-05T06:33:00.546Z,99.99
2018-09-05T06:34:00.613Z,99.99
2018-09-05T06:35:00.670Z,99.99
2018-09-05T06:36:00.737Z,99.99
2018-09-05T06:37:00.802Z,99.99
2018-09-05T06:38:00.874Z,99.99
2018-09-05T06:39:00.970Z,99.99
2018-09-05T06:40:01.002Z,99.99
2018-09-05T06:41:01.070Z,99.99
2018-09-05T06:42:01.134Z,99.99
2018-09-05T06:43:01.298Z,99.99
2018-09-05T06:44:01.266Z,99.99
2018-09-05T06:45:01.397Z,99.99
2018-09-05T06:46:01.404Z,99.99
2018-09-05T06:47:01.473Z,99.99
2018-09-05T06:48:01.538Z,99.99
2018-09-05T06:49:01.607Z,99.99
2018-09-05T06:50:01.667Z,99.99
2018-09-05T06:51:01.730Z,99.99
2018-09-05T06:52:01.800Z,99.99
2018-09-05T06:53:01.870Z,99.99
2018-09-05T06:54:01.938Z,99.99
2018-09-05T06:55:01.999Z,99.99
2018-09-05T06:56:02.062Z,99.99
2018-09-05T06:57:02.131Z,99.99
2018-09-05T06:58:02.371Z,99.99
2018-09-05T06:59:02.263Z,99.99
2018-09-05T07:00:02.334Z,99.99
2018-09-05T07:01:02.399Z,99.99
2018-09-05T07:02:02.463Z,99.99
2018-09-05T07:03:02.539Z,99.99
2018-09-05T07:04:02.666Z,99.99
2018-09-05T07:05:02.663Z,99.99
2018-09-05T07:06:02.731Z,99.99
2018-09-05T07:07:02.851Z,99.99
2018-09-05T07:08:02.871Z,99.99
2018-09-05T07:09:02.948Z,99.99
2018-09-05T07:10:03.049Z,99.99
2018-09-05T07:11:03.068Z,99.99
2018-09-05T07:12:03.132Z,99.99
2018-09-05T07:13:03.333Z,99.99
2018-09-05T07:14:03.274Z,99.99
2018-09-05T07:15:03.336Z,99.99
2018-09-05T07:16:03.404Z,99.99
2018-09-05T07:17:03.468Z,99.99
2018-09-05T07:18:03.544Z,99.99
2018-09-05T07:19:03.612Z,99.99
2018-09-05T07:20:03.680Z,99.99
2018-09-05T07:21:06.679Z,99.99
2018-09-05T07:22:03.861Z,99.99
2018-09-05T07:23:03.885Z,99.99
2018-09-05T07:24:03.947Z,99.99
2018-09-05T07:25:04.019Z,99.99
2018-09-05T07:26:04.077Z,99.99
2018-09-05T07:27:04.144Z,99.99
2018-09-05T07:28:04.227Z,99.99
2018-09-05T07:29:04.280Z,99.99
2018-09-05T07:30:04.343Z,99.99
2018-09-05T07:31:04.412Z,99.99
2018-09-05T07:32:04.479Z,99.99
2018-09-05T07:33:04.551Z,99.99
2018-09-05T07:34:04.619Z,99.99
2018-09-05T07:35:04.680Z,99.99
2018-09-05T07:36:04.748Z,99.99
2018-09-05T07:37:04.816Z,99.99
2018-09-05T07:38:04.892Z,99.99
2018-09-05T07:39:04.964Z,99.99
2018-09-05T07:40:05.021Z,99.99
2018-09-05T07:41:05.091Z,99.99
2018-09-05T07:42:05.156Z,99.99
2018-09-05T07:43:05.224Z,99.99
2018-09-05T07:44:05.404Z,99.99
2018-09-05T07:45:05.360Z,99.99
2018-09-05T07:46:05.429Z,99.65
2018-09-05T07:47:05.492Z,99.69
2018-09-05T07:48:05.564Z,98.63
2018-09-05T07:49:05.636Z,95.34
2018-09-05T07:50:05.712Z,99.16
2018-09-05T07:51:05.830Z,97.62
2018-09-05T07:52:05.861Z,99.26
2018-09-05T07:53:05.904Z,98.20
2018-09-05T07:54:05.988Z,96.26
2018-09-05T07:55:06.045Z,96.07
2018-09-05T07:56:06.109Z,98.05
2018-09-05T07:57:06.176Z,95.92
2018-09-05T07:58:06.244Z,95.92
2018-09-05T07:59:06.320Z,94.71
2018-09-05T08:00:06.585Z,94.66
2018-09-05T08:01:06.448Z,91.17
2018-09-05T08:02:06.520Z,90.44
2018-09-05T08:03:06.590Z,85.54
2018-09-05T08:04:06.660Z,84.86
2018-09-05T08:05:06.733Z,86.32
2018-09-05T08:06:06.805Z,85.50
2018-09-05T08:07:06.865Z,88.16
2018-09-05T08:08:06.932Z,88.26
2018-09-05T08:09:07.005Z,85.35
2018-09-05T08:10:07.181Z,85.64
2018-09-05T08:11:07.145Z,89.27
2018-09-05T08:12:07.213Z,87.27
2018-09-05T08:13:07.284Z,83.97
2018-09-05T08:14:07.356Z,80.32
2018-09-05T08:15:07.429Z,79.99
2018-09-05T08:16:07.501Z,82.32
2018-09-05T08:17:07.565Z,79.74
2018-09-05T08:18:07.705Z,79.39
2018-09-05T08:19:07.705Z,78.71
2018-09-05T08:20:07.783Z,80.91
2018-09-05T08:21:07.853Z,82.13
2018-09-05T08:22:07.917Z,83.00
2018-09-05T08:23:07.989Z,80.48
2018-09-05T08:24:08.104Z,79.51
2018-09-05T08:25:08.217Z,80.34
2018-09-05T08:26:08.205Z,81.80
2018-09-05T08:27:08.270Z,80.50
2018-09-05T08:28:08.341Z,80.69
2018-09-05T08:29:08.419Z,82.59
2018-09-05T08:30:08.558Z,81.82
2018-09-05T08:31:08.561Z,82.20
2018-09-05T08:32:08.626Z,82.59
2018-09-05T08:33:08.693Z,84.05
2018-09-05T08:34:08.765Z,83.85
2018-09-05T08:35:09.010Z,81.72
2018-09-05T08:36:09.139Z,82.88
2018-09-05T08:37:09.180Z,84.72
2018-09-05T08:38:09.049Z,86.51
2018-09-05T08:39:09.114Z,81.60
2018-09-05T08:40:09.290Z,81.31
2018-09-05T08:41:09.304Z,83.69
2018-09-05T08:42:09.356Z,80.77
2018-09-05T08:43:09.394Z,80.19
2018-09-05T08:44:09.586Z,80.81
2018-09-05T08:45:09.953Z,77.68
2018-09-05T08:46:09.762Z,78.30
2018-09-05T08:47:09.684Z,76.30
2018-09-05T08:48:09.834Z,73.54
2018-09-05T08:49:09.824Z,73.54
2018-09-05T08:50:09.918Z,74.41
2018-09-05T08:51:09.970Z,74.38
2018-09-05T08:52:10.038Z,75.25
2018-09-05T08:53:10.107Z,77.48
2018-09-05T08:54:10.179Z,76.12
2018-09-05T08:55:10.457Z,75.45
2018-09-05T08:56:10.403Z,74.28
2018-09-05T08:57:10.394Z,75.21
2018-09-05T08:58:10.463Z,74.54
2018-09-05T08:59:10.537Z,76.09
2018-09-05T09:00:10.613Z,75.70
2018-09-05T09:01:10.682Z,75.02
2018-09-05T09:02:10.747Z,74.01
2018-09-05T09:03:10.822Z,77.61
2018-09-05T09:04:10.891Z,77.18
2018-09-05T09:05:10.968Z,78.92
2018-09-05T09:06:11.039Z,77.51
2018-09-05T09:07:11.103Z,76.09
2018-09-05T09:08:11.175Z,77.35
2018-09-05T09:09:11.247Z,75.51
2018-09-05T09:10:11.416Z,75.35
2018-09-05T09:11:11.388Z,73.79
2018-09-05T09:12:11.463Z,72.43
2018-09-05T09:13:11.532Z,75.38
2018-09-05T09:14:11.604Z,75.97
2018-09-05T09:15:11.684Z,74.26
2018-09-05T09:16:11.762Z,74.10
2018-09-05T09:17:11.820Z,71.92
2018-09-05T09:18:11.896Z,74.29
2018-09-05T09:19:11.960Z,71.70
2018-09-05T09:20:12.040Z,72.12
2018-09-05T09:21:12.112Z,70.40
2018-09-05T09:22:12.180Z,68.45
2018-09-05T09:23:12.248Z,68.62
2018-09-05T09:24:12.324Z,70.72
2018-09-05T09:25:12.664Z,69.84
2018-09-05T09:26:12.468Z,68.90
2018-09-05T09:27:12.544Z,68.68
2018-09-05T09:28:12.633Z,69.32
2018-09-05T09:29:12.685Z,70.30
2018-09-05T09:30:12.764Z,73.51
2018-09-05T09:31:12.837Z,72.83
2018-09-05T09:32:12.901Z,71.60
2018-09-05T09:33:12.973Z,70.53
2018-09-05T09:34:13.046Z,70.07
2018-09-05T09:35:13.276Z,68.65
2018-09-05T09:36:13.191Z,67.96
2018-09-05T09:37:13.265Z,67.74
2018-09-05T09:38:13.336Z,69.29
2018-09-05T09:39:13.409Z,71.70
2018-09-05T09:40:13.485Z,71.37
2018-09-05T09:41:13.564Z,71.47
2018-09-05T09:42:13.625Z,70.17
2018-09-05T09:43:13.697Z,73.57
2018-09-05T09:44:13.769Z,71.53
2018-09-05T09:45:13.849Z,71.20
2018-09-05T09:46:13.921Z,71.92
2018-09-05T09:47:13.987Z,73.28
2018-09-05T09:48:14.057Z,70.17
2018-09-05T09:49:14.130Z,70.91
2018-09-05T09:50:14.201Z,72.17
2018-09-05T09:51:14.381Z,73.93
2018-09-05T09:52:14.345Z,70.91
2018-09-05T09:53:14.417Z,69.45
2018-09-05T09:54:14.489Z,70.04
2018-09-05T09:55:14.561Z,72.80
2018-09-05T09:56:14.637Z,70.13
2018-09-05T09:57:14.710Z,68.71
2018-09-05T09:58:14.778Z,68.61
2018-09-05T09:59:14.851Z,67.83
2018-09-05T10:00:14.917Z,69.68
2018-09-05T10:01:14.998Z,67.15
2018-09-05T10:02:15.069Z,67.93
2018-09-05T10:03:15.161Z,70.26
2018-09-05T10:04:15.206Z,67.93
2018-09-05T10:05:15.278Z,68.61
2018-09-05T10:06:15.350Z,71.40
2018-09-05T10:07:15.565Z,72.41
2018-09-05T10:08:15.494Z,72.37
2018-09-05T10:09:15.566Z,71.30
2018-09-05T10:10:16.108Z,73.73
2018-09-05T10:11:15.706Z,73.34
2018-09-05T10:12:15.786Z,71.59
2018-09-05T10:13:15.859Z,70.62
2018-09-05T10:14:15.924Z,68.12
2018-09-05T10:15:15.994Z,67.05
2018-09-05T10:16:16.066Z,66.96
2018-09-05T10:17:16.167Z,69.71
2018-09-05T10:18:16.206Z,67.93
2018-09-05T10:19:16.278Z,68.26
2018-09-05T10:20:16.354Z,67.77
2018-09-05T10:21:16.422Z,71.47
2018-09-05T10:22:16.505Z,70.23
2018-09-05T10:23:16.570Z,72.19
2018-09-05T10:24:16.639Z,70.76
2018-09-05T10:25:16.708Z,68.80
2018-09-05T10:26:16.783Z,68.58
2018-09-05T10:27:16.859Z,68.38
2018-09-05T10:28:16.930Z,70.23
2018-09-05T10:29:16.994Z,70.17
2018-09-05T10:30:17.067Z,71.77
2018-09-05T10:31:17.139Z,69.36
2018-09-05T10:32:17.413Z,67.38
2018-09-05T10:33:17.283Z,67.67
2018-09-05T10:34:17.355Z,69.04
2018-09-05T10:35:17.424Z,66.66
2018-09-05T10:36:17.495Z,65.92
2018-09-05T10:37:17.575Z,67.58
2018-09-05T10:38:17.648Z,64.90
2018-09-05T10:39:17.711Z,65.72
2018-09-05T10:40:17.783Z,68.55
2018-09-05T10:41:17.855Z,70.40
2018-09-05T10:42:17.935Z,68.16
2018-09-05T10:43:18.007Z,67.18
2018-09-05T10:44:18.124Z,67.25
2018-09-05T10:45:18.152Z,67.90
2018-09-05T10:46:18.220Z,68.77
2018-09-05T10:47:18.288Z,68.64
2018-09-05T10:48:18.520Z,68.35
2018-09-05T10:49:18.431Z,69.58
2018-09-05T10:50:18.504Z,70.65
2018-09-05T10:51:18.576Z,69.48
2018-09-05T10:52:18.647Z,71.66
2018-09-05T10:53:18.730Z,70.36
2018-09-05T10:54:18.796Z,69.87
2018-09-05T10:55:18.860Z,67.73
2018-09-05T10:56:18.932Z,68.90
2018-09-05T10:57:19.004Z,70.85
2018-09-05T10:58:19.172Z,71.72
2018-09-05T10:59:19.148Z,70.26
2018-09-05T11:00:19.220Z,71.43
2018-09-05T11:01:19.292Z,71.66
2018-09-05T11:02:19.364Z,70.33
2018-09-05T11:03:19.440Z,67.60
2018-09-05T11:04:19.579Z,68.32
2018-09-05T11:05:19.593Z,67.86
2018-09-05T11:06:19.648Z,67.38
2018-09-05T11:07:19.720Z,65.63
2018-09-05T11:08:19.803Z,66.31
2018-09-05T11:09:19.872Z,63.70
2018-09-05T11:10:19.984Z,67.32
2018-09-05T11:11:20.009Z,65.53
2018-09-05T11:12:20.081Z,65.59
2018-09-05T11:13:20.245Z,68.71
2018-09-05T11:14:20.225Z,67.60
2018-09-05T11:15:20.293Z,65.85
2018-09-05T11:16:20.365Z,67.96
2018-09-05T11:17:20.438Z,66.41
2018-09-05T11:18:20.516Z,67.96
2018-09-05T11:19:20.589Z,69.32
2018-09-05T11:20:20.653Z,70.82
2018-09-05T11:21:20.730Z,68.55
2018-09-05T11:22:20.796Z,68.35
2018-09-05T11:23:20.877Z,68.93
2018-09-05T11:24:20.945Z,69.13
2018-09-05T11:25:21.013Z,70.20
2018-09-05T11:26:21.081Z,68.29
2018-09-05T11:27:21.153Z,67.70
2018-09-05T11:28:21.333Z,68.87
2018-09-05T11:29:21.296Z,67.96
2018-09-05T11:30:21.368Z,67.90
2018-09-05T11:31:21.437Z,68.29
2018-09-05T11:32:21.515Z,67.22
2018-09-05T11:33:21.593Z,65.78
2018-09-05T11:34:21.674Z,67.54
2018-09-05T11:35:21.731Z,68.90
2018-09-05T11:36:21.801Z,68.65
2018-09-05T11:37:21.877Z,67.67
2018-09-05T11:38:21.949Z,65.63
2018-09-05T11:39:22.021Z,65.23
2018-09-05T11:40:22.085Z,66.66
2018-09-05T11:41:22.157Z,66.37
2018-09-05T11:42:22.234Z,66.17
2018-09-05T11:43:22.410Z,69.20
2018-09-05T11:44:22.373Z,68.71
2018-09-05T11:45:22.445Z,69.13
2018-09-05T11:46:22.517Z,66.60
2018-09-05T11:47:22.590Z,65.23
2018-09-05T11:48:22.670Z,65.30
2018-09-05T11:49:22.741Z,65.69
2018-09-05T11:50:22.806Z,65.88
2018-09-05T11:51:22.877Z,65.78
2018-09-05T11:52:22.949Z,65.78
2018-09-05T11:53:23.033Z,66.69
2018-09-05T11:54:23.101Z,68.06
2018-09-05T11:55:23.166Z,68.55
2018-09-05T11:56:23.237Z,66.11
2018-09-05T11:57:23.372Z,67.77
2018-09-05T11:58:23.390Z,67.51
2018-09-05T11:59:23.461Z,67.67
2018-09-05T12:00:23.526Z,64.55
2018-09-05T12:01:23.602Z,63.51
2018-09-05T12:02:23.747Z,62.53
2018-09-05T12:03:23.750Z,62.73
2018-09-05T12:04:23.822Z,62.63
2018-09-05T12:05:23.886Z,64.78
2018-09-05T12:06:23.958Z,62.95
2018-09-05T12:07:24.031Z,64.90
2018-09-05T12:08:24.370Z,62.73
2018-09-05T12:09:24.174Z,62.53
2018-09-05T12:10:24.250Z,64.26
2018-09-05T12:11:24.318Z,64.94
2018-09-05T12:12:24.394Z,64.81
2018-09-05T12:13:24.470Z,64.72
2018-09-05T12:14:24.542Z,67.25
2018-09-05T12:15:24.607Z,68.52
2018-09-05T12:16:24.678Z,67.02
2018-09-05T12:17:24.750Z,67.15
2018-09-05T12:18:24.830Z,67.54
2018-09-05T12:19:24.913Z,65.82
2018-09-05T12:20:24.966Z,66.99
2018-09-05T12:21:25.038Z,63.15
2018-09-05T12:22:25.111Z,65.53
2018-09-05T12:23:25.184Z,66.79
2018-09-05T12:24:25.278Z,66.89
2018-09-05T12:25:25.327Z,67.18
2018-09-05T12:26:25.401Z,67.71
2018-09-05T12:27:25.473Z,67.22
2018-09-05T12:28:25.543Z,66.05
2018-09-05T12:29:25.621Z,63.83
2018-09-05T12:30:25.691Z,64.90
2018-09-05T12:31:25.755Z,63.83
2018-09-05T12:32:25.827Z,64.03
2018-09-05T12:33:25.899Z,65.14
2018-09-05T12:34:25.979Z,63.38
2018-09-05T12:35:26.051Z,62.60
2018-09-05T12:36:26.117Z,64.71
2018-09-05T12:37:26.187Z,64.36
2018-09-05T12:38:26.464Z,64.94
2018-09-05T12:39:26.331Z,62.40
2018-09-05T12:40:26.419Z,62.99
2018-09-05T12:41:26.475Z,61.91
2018-09-05T12:42:26.547Z,63.05
2018-09-05T12:43:26.620Z,61.98
2018-09-05T12:44:26.691Z,62.37
2018-09-05T12:45:26.775Z,62.05
2018-09-05T12:46:26.846Z,63.05
2018-09-05T12:47:26.907Z,64.81
2018-09-05T12:48:26.988Z,64.03
2018-09-05T12:49:27.054Z,62.85
2018-09-05T12:50:27.228Z,64.61
2018-09-05T12:51:27.195Z,65.10
2018-09-05T12:52:27.263Z,64.22
2018-09-05T12:53:27.344Z,62.15
2018-09-05T12:54:27.415Z,61.49
2018-09-05T12:55:27.492Z,63.70
2018-09-05T12:56:27.567Z,64.32
2018-09-05T12:57:27.632Z,64.90
2018-09-05T12:58:27.704Z,62.37
2018-09-05T12:59:27.772Z,63.73
2018-09-05T13:00:27.853Z,63.83
2018-09-05T13:01:27.924Z,63.64